TimeAST,TemperatureF,Dew PointF,Humidity,Sea Level PressureIn,VisibilityMPH,Wind Direction,Wind SpeedMPH,Gust SpeedMPH,PrecipitationIn,Events,Conditions,WindDirDegrees,DateUTC
12:00 AM,31.6,28.4,88,-9999,-9999.0,North,-9999.0,-,N/A,,Unknown,0,2012-12-12 04:00:00
1:00 AM,31.6,27.1,83,-9999,-9999.0,North,-9999.0,-,N/A,,Unknown,0,2012-12-12 05:00:00
2:00 AM,29.8,24.6,81,-9999,-9999.0,North,-9999.0,-,N/A,,Unknown,0,2012-12-12 06:00:00
3:00 AM,28.0,21.6,77,-9999,-9999.0,North,-9999.0,-,N/A,,Unknown,0,2012-12-12 07:00:00
4:00 AM,26.6,21.2,80,-9999,-9999.0,North,-9999.0,-,N/A,,Unknown,0,2012-12-12 08:00:00
5:00 AM,25.0,19.4,79,-9999,-9999.0,North,-9999.0,-,N/A,,Unknown,0,2012-12-12 09:00:00
6:00 AM,23.0,19.8,87,-9999,-9999.0,North,-9999.0,-,N/A,,Unknown,0,2012-12-12 10:00:00
7:00 AM,22.5,19.6,89,-9999,-9999.0,North,-9999.0,-,N/A,,Unknown,0,2012-12-12 11:00:00
8:00 AM,22.5,19.9,90,-9999,-9999.0,North,-9999.0,-,N/A,,Unknown,0,2012-12-12 12:00:00
9:00 AM,24.1,20.3,85,-9999,-9999.0,North,-9999.0,-,N/A,,Unknown,0,2012-12-12 13:00:00
10:00 AM,25.9,19.6,77,-9999,-9999.0,North,-9999.0,-,N/A,,Unknown,0,2012-12-12 14:00:00
11:00 AM,28.4,20.5,72,-9999,-9999.0,North,-9999.0,-,N/A,,Unknown,0,2012-12-12 15:00:00
12:00 PM,28.2,18.1,66,-9999,-9999.0,North,-9999.0,-,N/A,,Unknown,0,2012-12-12 16:00:00
1:00 PM,29.3,19.4,67,-9999,-9999.0,North,-9999.0,-,N/A,,Unknown,0,2012-12-12 17:00:00
2:00 PM,30.9,18.9,61,-9999,-9999.0,North,-9999.0,-,N/A,,Unknown,0,2012-12-12 18:00:00
3:00 PM,30.7,17.1,57,-9999,-9999.0,North,-9999.0,-,N/A,,Unknown,0,2012-12-12 19:00:00
4:00 PM,28.6,20.7,72,-9999,-9999.0,North,-9999.0,-,N/A,,Unknown,0,2012-12-12 20:00:00
5:00 PM,25.9,21.0,82,-9999,-9999.0,North,-9999.0,-,N/A,,Unknown,0,2012-12-12 21:00:00
6:00 PM,24.6,19.6,81,-9999,-9999.0,North,-9999.0,-,N/A,,Unknown,0,2012-12-12 22:00:00
7:00 PM,23.4,18.5,82,-9999,-9999.0,North,-9999.0,-,N/A,,Unknown,0,2012-12-12 23:00:00
8:00 PM,20.5,18.3,91,-9999,-9999.0,North,-9999.0,-,N/A,,Unknown,0,2012-12-13 00:00:00
9:00 PM,19.0,18.0,96,-9999,-9999.0,North,-9999.0,-,N/A,,Unknown,0,2012-12-13 01:00:00
10:00 PM,17.4,16.2,95,-9999,-9999.0,North,-9999.0,-,N/A,,Unknown,0,2012-12-13 02:00:00
11:00 PM,22.5,17.2,80,-9999,-9999.0,North,-9999.0,-,N/A,,Unknown,0,2012-12-13 03:00:00